createdAt,value
2022-10-21T06:08:27.617Z,44.60
2022-10-21T06:13:31.463Z,44.50
2022-10-21T06:18:34.704Z,44.10
2022-10-21T06:23:37.653Z,43.50
2022-10-21T06:35:39.140Z,43.60
2022-10-21T06:40:42.466Z,43.60
2022-10-21T06:45:44.986Z,44.10
2022-10-21T06:50:47.210Z,43.70
2022-10-21T17:16:32.694Z,57.90
2022-10-21T17:21:35.812Z,57.70
2022-10-21T17:26:38.481Z,56.60
2022-10-21T17:31:42.390Z,55.90
2022-10-21T17:36:44.707Z,55.70
2022-10-21T17:46:54.705Z,55.10
2022-10-21T17:51:57.149Z,54.90
2022-10-21T17:57:00.787Z,55.20
2022-10-21T18:02:03.234Z,54.70
2022-10-21T18:07:09.358Z,54.60
2022-10-21T18:12:13.679Z,54.80
2022-10-21T18:17:16.334Z,55.00
2022-10-21T18:22:19.407Z,54.70
2022-10-21T18:27:21.670Z,54.90
2022-10-21T18:32:23.916Z,55.00
2022-10-21T18:37:26.147Z,55.30
2022-10-21T18:42:28.425Z,55.90
2022-10-21T18:47:30.700Z,55.90
2022-10-21T18:52:32.993Z,56.10
2022-10-21T18:57:35.286Z,55.80
2022-10-21T19:02:37.712Z,55.60
2022-10-21T19:07:40.296Z,55.50
2022-10-21T19:12:42.859Z,55.50
2022-10-21T19:17:46.868Z,55.20
2022-10-21T19:22:50.520Z,55.10
2022-10-21T19:27:52.810Z,55.10
2022-10-21T19:32:55.110Z,54.60
2022-10-21T19:38:00.635Z,54.70
2022-10-21T19:43:05.743Z,54.60
2022-10-21T19:48:08.149Z,54.30
2022-10-21T19:53:10.370Z,54.30
2022-10-21T19:58:12.685Z,54.20
2022-10-21T20:03:14.974Z,54.30
2022-10-21T20:08:17.242Z,54.20
2022-10-21T20:13:19.512Z,54.30
2022-10-21T20:18:24.837Z,54.40
2022-10-21T20:23:30.515Z,54.30
2022-10-21T20:28:33.070Z,54.30
2022-10-21T20:33:39.275Z,54.20
2022-10-21T20:38:42.448Z,54.30
2022-10-21T20:43:44.813Z,54.20
2022-10-21T20:48:49.581Z,54.10
2022-10-21T20:53:55.938Z,54.30
2022-10-21T20:58:58.878Z,54.40
2022-10-21T21:04:08.355Z,54.30
